sensor_id;sensor_type;location;lat;lon;timestamp;P1;durP1;ratioP1;P2;durP2;ratioP2
11514;SDS011;5814;41.936;25.556;2024-03-07T00:02:14;38.33;;;34.50;;
11514;SDS011;5814;41.936;25.556;2024-03-07T00:04:42;38.60;;;34.70;;
11514;SDS011;5814;41.936;25.556;2024-03-07T00:07:08;39.80;;;36.17;;
11514;SDS011;5814;41.936;25.556;2024-03-07T00:09:34;39.23;;;35.60;;
11514;SDS011;5814;41.936;25.556;2024-03-07T00:12:03;38.63;;;34.97;;
11514;SDS011;5814;41.936;25.556;2024-03-07T00:14:29;41.20;;;37.23;;
11514;SDS011;5814;41.936;25.556;2024-03-07T00:16:57;43.57;;;39.40;;
11514;SDS011;5814;41.936;25.556;2024-03-07T00:19:24;39.30;;;35.57;;
11514;SDS011;5814;41.936;25.556;2024-03-07T00:21:57;39.50;;;35.73;;
11514;SDS011;5814;41.936;25.556;2024-03-07T00:24:24;39.03;;;35.23;;
11514;SDS011;5814;41.936;25.556;2024-03-07T00:26:49;38.63;;;35.10;;
11514;SDS011;5814;41.936;25.556;2024-03-07T00:29:16;39.10;;;35.27;;
11514;SDS011;5814;41.936;25.556;2024-03-07T00:31:43;40.40;;;36.40;;
11514;SDS011;5814;41.936;25.556;2024-03-07T00:34:09;41.80;;;37.80;;
11514;SDS011;5814;41.936;25.556;2024-03-07T00:36:35;40.87;;;37.03;;
11514;SDS011;5814;41.936;25.556;2024-03-07T00:39:00;38.73;;;35.23;;
11514;SDS011;5814;41.936;25.556;2024-03-07T00:41:26;41.77;;;37.73;;
11514;SDS011;5814;41.936;25.556;2024-03-07T00:43:51;39.03;;;35.50;;
11514;SDS011;5814;41.936;25.556;2024-03-07T00:46:17;40.70;;;36.83;;
11514;SDS011;5814;41.936;25.556;2024-03-07T00:48:42;39.17;;;35.50;;
11514;SDS011;5814;41.936;25.556;2024-03-07T00:51:07;38.57;;;35.03;;
11514;SDS011;5814;41.936;25.556;2024-03-07T00:53:34;38.83;;;35.13;;
11514;SDS011;5814;41.936;25.556;2024-03-07T00:55:59;37.50;;;34.00;;
11514;SDS011;5814;41.936;25.556;2024-03-07T00:58:24;37.93;;;34.33;;
11514;SDS011;5814;41.936;25.556;2024-03-07T01:00:50;39.53;;;35.70;;
11514;SDS011;5814;41.936;25.556;2024-03-07T01:03:15;38.43;;;34.93;;
11514;SDS011;5814;41.936;25.556;2024-03-07T01:05:42;39.57;;;35.73;;
11514;SDS011;5814;41.936;25.556;2024-03-07T01:08:08;38.80;;;35.00;;
11514;SDS011;5814;41.936;25.556;2024-03-07T01:10:34;37.00;;;33.73;;
11514;SDS011;5814;41.936;25.556;2024-03-07T01:12:59;39.13;;;35.37;;
11514;SDS011;5814;41.936;25.556;2024-03-07T01:15:29;38.10;;;34.63;;
11514;SDS011;5814;41.936;25.556;2024-03-07T01:17:55;40.33;;;36.60;;
11514;SDS011;5814;41.936;25.556;2024-03-07T01:20:21;39.17;;;35.43;;
11514;SDS011;5814;41.936;25.556;2024-03-07T01:22:46;39.23;;;35.47;;
11514;SDS011;5814;41.936;25.556;2024-03-07T01:25:12;39.10;;;35.47;;
11514;SDS011;5814;41.936;25.556;2024-03-07T01:27:37;39.57;;;35.97;;
11514;SDS011;5814;41.936;25.556;2024-03-07T01:30:03;38.80;;;35.30;;
11514;SDS011;5814;41.936;25.556;2024-03-07T01:32:32;38.47;;;35.07;;
11514;SDS011;5814;41.936;25.556;2024-03-07T01:34:58;36.13;;;32.50;;
11514;SDS011;5814;41.936;25.556;2024-03-07T01:37:23;38.33;;;34.73;;
11514;SDS011;5814;41.936;25.556;2024-03-07T01:39:49;37.20;;;33.70;;
11514;SDS011;5814;41.936;25.556;2024-03-07T01:42:14;37.80;;;33.83;;
11514;SDS011;5814;41.936;25.556;2024-03-07T01:44:40;38.70;;;35.03;;
11514;SDS011;5814;41.936;25.556;2024-03-07T01:47:06;38.10;;;34.53;;
11514;SDS011;5814;41.936;25.556;2024-03-07T01:49:32;38.07;;;34.50;;
11514;SDS011;5814;41.936;25.556;2024-03-07T01:51:58;38.10;;;34.77;;
11514;SDS011;5814;41.936;25.556;2024-03-07T01:54:25;37.83;;;34.23;;
11514;SDS011;5814;41.936;25.556;2024-03-07T01:56:52;37.17;;;33.50;;
11514;SDS011;5814;41.936;25.556;2024-03-07T01:59:21;35.70;;;32.17;;
11514;SDS011;5814;41.936;25.556;2024-03-07T02:01:47;39.03;;;35.13;;
11514;SDS011;5814;41.936;25.556;2024-03-07T02:04:13;39.90;;;36.20;;
11514;SDS011;5814;41.936;25.556;2024-03-07T02:06:39;40.37;;;36.70;;
11514;SDS011;5814;41.936;25.556;2024-03-07T02:09:05;40.57;;;36.70;;
11514;SDS011;5814;41.936;25.556;2024-03-07T02:11:32;41.37;;;37.47;;
11514;SDS011;5814;41.936;25.556;2024-03-07T02:13:57;38.70;;;35.20;;
11514;SDS011;5814;41.936;25.556;2024-03-07T02:16:22;41.53;;;37.87;;
11514;SDS011;5814;41.936;25.556;2024-03-07T02:18:48;39.50;;;35.90;;
11514;SDS011;5814;41.936;25.556;2024-03-07T02:21:14;38.63;;;35.03;;
11514;SDS011;5814;41.936;25.556;2024-03-07T02:23:39;38.53;;;35.27;;
11514;SDS011;5814;41.936;25.556;2024-03-07T02:26:06;38.93;;;35.33;;
11514;SDS011;5814;41.936;25.556;2024-03-07T02:28:33;36.47;;;33.17;;
11514;SDS011;5814;41.936;25.556;2024-03-07T02:30:59;36.27;;;32.63;;
11514;SDS011;5814;41.936;25.556;2024-03-07T02:33:25;37.07;;;33.40;;
11514;SDS011;5814;41.936;25.556;2024-03-07T02:35:51;35.90;;;32.27;;
11514;SDS011;5814;41.936;25.556;2024-03-07T02:38:17;38.90;;;35.40;;
11514;SDS011;5814;41.936;25.556;2024-03-07T02:40:43;37.53;;;33.93;;
11514;SDS011;5814;41.936;25.556;2024-03-07T02:43:08;36.80;;;33.23;;
11514;SDS011;5814;41.936;25.556;2024-03-07T02:45:34;36.47;;;32.90;;
11514;SDS011;5814;41.936;25.556;2024-03-07T02:47:59;36.67;;;33.10;;
11514;SDS011;5814;41.936;25.556;2024-03-07T02:50:24;35.37;;;31.67;;
11514;SDS011;5814;41.936;25.556;2024-03-07T02:52:50;40.23;;;36.23;;
11514;SDS011;5814;41.936;25.556;2024-03-07T02:55:17;37.90;;;34.27;;
11514;SDS011;5814;41.936;25.556;2024-03-07T02:57:44;39.50;;;35.93;;
11514;SDS011;5814;41.936;25.556;2024-03-07T03:00:10;38.03;;;34.30;;
11514;SDS011;5814;41.936;25.556;2024-03-07T03:02:48;38.63;;;34.80;;
11514;SDS011;5814;41.936;25.556;2024-03-07T03:05:17;37.87;;;34.37;;
11514;SDS011;5814;41.936;25.556;2024-03-07T03:07:43;37.73;;;34.13;;
11514;SDS011;5814;41.936;25.556;2024-03-07T03:10:18;37.17;;;33.50;;
11514;SDS011;5814;41.936;25.556;2024-03-07T03:12:51;34.70;;;31.40;;
11514;SDS011;5814;41.936;25.556;2024-03-07T03:15:18;37.73;;;33.93;;
11514;SDS011;5814;41.936;25.556;2024-03-07T03:17:46;40.33;;;36.63;;
11514;SDS011;5814;41.936;25.556;2024-03-07T03:20:12;38.87;;;35.07;;
11514;SDS011;5814;41.936;25.556;2024-03-07T03:22:52;38.17;;;34.60;;
11514;SDS011;5814;41.936;25.556;2024-03-07T03:25:18;38.67;;;34.90;;
11514;SDS011;5814;41.936;25.556;2024-03-07T03:27:45;37.00;;;33.30;;
11514;SDS011;5814;41.936;25.556;2024-03-07T03:30:12;38.40;;;34.70;;
11514;SDS011;5814;41.936;25.556;2024-03-07T03:32:39;37.90;;;34.07;;
11514;SDS011;5814;41.936;25.556;2024-03-07T03:35:05;36.80;;;33.10;;
11514;SDS011;5814;41.936;25.556;2024-03-07T03:37:32;36.90;;;33.10;;
11514;SDS011;5814;41.936;25.556;2024-03-07T03:39:58;36.87;;;32.97;;
11514;SDS011;5814;41.936;25.556;2024-03-07T03:42:23;36.10;;;32.27;;
11514;SDS011;5814;41.936;25.556;2024-03-07T03:44:49;34.83;;;31.43;;
11514;SDS011;5814;41.936;25.556;2024-03-07T03:47:14;34.50;;;31.23;;
11514;SDS011;5814;41.936;25.556;2024-03-07T03:49:40;34.70;;;31.30;;
11514;SDS011;5814;41.936;25.556;2024-03-07T03:52:05;33.93;;;30.50;;
11514;SDS011;5814;41.936;25.556;2024-03-07T03:54:31;33.73;;;30.53;;
11514;SDS011;5814;41.936;25.556;2024-03-07T03:56:56;35.40;;;31.83;;
11514;SDS011;5814;41.936;25.556;2024-03-07T03:59:24;35.47;;;32.23;;
11514;SDS011;5814;41.936;25.556;2024-03-07T04:01:49;33.70;;;30.60;;
11514;SDS011;5814;41.936;25.556;2024-03-07T04:04:14;33.43;;;30.17;;
11514;SDS011;5814;41.936;25.556;2024-03-07T04:06:40;33.93;;;30.43;;
11514;SDS011;5814;41.936;25.556;2024-03-07T04:09:05;34.23;;;31.03;;
11514;SDS011;5814;41.936;25.556;2024-03-07T04:11:31;33.27;;;29.77;;
11514;SDS011;5814;41.936;25.556;2024-03-07T04:13:56;31.20;;;28.20;;
11514;SDS011;5814;41.936;25.556;2024-03-07T04:16:21;33.00;;;30.07;;
11514;SDS011;5814;41.936;25.556;2024-03-07T04:18:48;31.70;;;29.00;;
11514;SDS011;5814;41.936;25.556;2024-03-07T04:21:13;32.73;;;29.47;;
11514;SDS011;5814;41.936;25.556;2024-03-07T04:23:42;33.03;;;29.90;;
11514;SDS011;5814;41.936;25.556;2024-03-07T04:26:08;33.13;;;29.83;;
11514;SDS011;5814;41.936;25.556;2024-03-07T04:28:33;32.53;;;29.47;;
11514;SDS011;5814;41.936;25.556;2024-03-07T04:30:59;33.80;;;30.37;;
11514;SDS011;5814;41.936;25.556;2024-03-07T04:33:25;32.30;;;29.20;;
11514;SDS011;5814;41.936;25.556;2024-03-07T04:35:50;31.13;;;28.40;;
11514;SDS011;5814;41.936;25.556;2024-03-07T04:38:17;30.37;;;27.47;;
11514;SDS011;5814;41.936;25.556;2024-03-07T04:40:43;29.87;;;26.70;;
11514;SDS011;5814;41.936;25.556;2024-03-07T04:43:08;29.40;;;26.63;;
11514;SDS011;5814;41.936;25.556;2024-03-07T04:45:33;28.53;;;25.93;;
11514;SDS011;5814;41.936;25.556;2024-03-07T04:47:59;30.30;;;27.03;;
11514;SDS011;5814;41.936;25.556;2024-03-07T04:50:25;29.70;;;26.60;;
11514;SDS011;5814;41.936;25.556;2024-03-07T04:52:51;31.30;;;28.33;;
11514;SDS011;5814;41.936;25.556;2024-03-07T04:55:17;29.47;;;26.50;;
11514;SDS011;5814;41.936;25.556;2024-03-07T04:57:43;28.90;;;25.83;;
11514;SDS011;5814;41.936;25.556;2024-03-07T05:00:09;29.67;;;26.77;;
11514;SDS011;5814;41.936;25.556;2024-03-07T05:02:42;28.77;;;25.87;;
11514;SDS011;5814;41.936;25.556;2024-03-07T05:05:09;29.47;;;26.37;;
11514;SDS011;5814;41.936;25.556;2024-03-07T05:07:35;27.80;;;25.03;;
11514;SDS011;5814;41.936;25.556;2024-03-07T05:10:01;31.53;;;27.80;;
11514;SDS011;5814;41.936;25.556;2024-03-07T05:12:30;38.93;;;34.97;;
11514;SDS011;5814;41.936;25.556;2024-03-07T05:14:56;30.33;;;27.47;;
11514;SDS011;5814;41.936;25.556;2024-03-07T05:17:21;26.97;;;24.13;;
11514;SDS011;5814;41.936;25.556;2024-03-07T05:19:47;28.73;;;25.90;;
11514;SDS011;5814;41.936;25.556;2024-03-07T05:22:14;28.03;;;24.90;;
11514;SDS011;5814;41.936;25.556;2024-03-07T05:24:41;28.43;;;25.50;;
11514;SDS011;5814;41.936;25.556;2024-03-07T05:27:07;29.33;;;26.40;;
11514;SDS011;5814;41.936;25.556;2024-03-07T05:29:36;31.60;;;28.60;;
11514;SDS011;5814;41.936;25.556;2024-03-07T05:32:19;27.40;;;24.63;;
11514;SDS011;5814;41.936;25.556;2024-03-07T05:34:45;27.60;;;25.03;;
11514;SDS011;5814;41.936;25.556;2024-03-07T05:37:11;26.73;;;24.13;;
11514;SDS011;5814;41.936;25.556;2024-03-07T05:39:36;28.50;;;25.93;;
11514;SDS011;5814;41.936;25.556;2024-03-07T05:42:02;30.50;;;27.07;;
11514;SDS011;5814;41.936;25.556;2024-03-07T05:44:28;29.73;;;26.67;;
11514;SDS011;5814;41.936;25.556;2024-03-07T05:46:53;29.47;;;26.77;;
11514;SDS011;5814;41.936;25.556;2024-03-07T05:49:19;31.97;;;28.63;;
11514;SDS011;5814;41.936;25.556;2024-03-07T05:51:46;28.07;;;25.47;;
11514;SDS011;5814;41.936;25.556;2024-03-07T05:54:12;29.10;;;26.43;;
11514;SDS011;5814;41.936;25.556;2024-03-07T05:56:38;32.93;;;26.43;;
11514;SDS011;5814;41.936;25.556;2024-03-07T05:59:04;27.60;;;24.90;;
11514;SDS011;5814;41.936;25.556;2024-03-07T06:01:32;29.13;;;26.10;;
11514;SDS011;5814;41.936;25.556;2024-03-07T06:04:02;29.70;;;26.90;;
11514;SDS011;5814;41.936;25.556;2024-03-07T06:06:30;30.07;;;26.90;;
11514;SDS011;5814;41.936;25.556;2024-03-07T06:08:58;27.40;;;24.80;;
11514;SDS011;5814;41.936;25.556;2024-03-07T06:11:24;31.30;;;28.23;;
11514;SDS011;5814;41.936;25.556;2024-03-07T06:13:50;32.53;;;29.13;;
11514;SDS011;5814;41.936;25.556;2024-03-07T06:16:16;32.33;;;29.00;;
11514;SDS011;5814;41.936;25.556;2024-03-07T06:18:43;30.03;;;26.83;;
11514;SDS011;5814;41.936;25.556;2024-03-07T06:21:11;29.17;;;26.20;;
11514;SDS011;5814;41.936;25.556;2024-03-07T06:23:36;29.57;;;26.80;;
11514;SDS011;5814;41.936;25.556;2024-03-07T06:26:02;27.90;;;25.40;;
11514;SDS011;5814;41.936;25.556;2024-03-07T06:28:37;29.47;;;26.57;;
11514;SDS011;5814;41.936;25.556;2024-03-07T06:31:02;24.37;;;22.17;;
11514;SDS011;5814;41.936;25.556;2024-03-07T06:33:32;28.00;;;25.23;;
11514;SDS011;5814;41.936;25.556;2024-03-07T06:35:58;26.77;;;24.50;;
11514;SDS011;5814;41.936;25.556;2024-03-07T06:38:23;30.47;;;27.77;;
11514;SDS011;5814;41.936;25.556;2024-03-07T06:40:49;30.10;;;27.40;;
11514;SDS011;5814;41.936;25.556;2024-03-07T06:43:14;33.87;;;30.30;;
11514;SDS011;5814;41.936;25.556;2024-03-07T06:45:40;27.83;;;25.30;;
11514;SDS011;5814;41.936;25.556;2024-03-07T06:48:06;26.10;;;23.70;;
11514;SDS011;5814;41.936;25.556;2024-03-07T06:50:35;27.53;;;25.03;;
11514;SDS011;5814;41.936;25.556;2024-03-07T06:53:04;26.83;;;24.07;;
11514;SDS011;5814;41.936;25.556;2024-03-07T06:55:32;26.67;;;23.87;;
11514;SDS011;5814;41.936;25.556;2024-03-07T06:58:01;26.00;;;23.37;;
11514;SDS011;5814;41.936;25.556;2024-03-07T07:00:29;25.17;;;22.70;;
11514;SDS011;5814;41.936;25.556;2024-03-07T07:02:57;25.53;;;23.13;;
11514;SDS011;5814;41.936;25.556;2024-03-07T07:05:22;25.03;;;22.57;;
11514;SDS011;5814;41.936;25.556;2024-03-07T07:07:48;26.30;;;23.67;;
11514;SDS011;5814;41.936;25.556;2024-03-07T07:10:14;27.07;;;23.40;;
11514;SDS011;5814;41.936;25.556;2024-03-07T07:12:49;26.43;;;23.90;;
11514;SDS011;5814;41.936;25.556;2024-03-07T07:15:16;26.50;;;23.90;;
11514;SDS011;5814;41.936;25.556;2024-03-07T07:17:43;28.70;;;26.13;;
11514;SDS011;5814;41.936;25.556;2024-03-07T07:20:14;26.97;;;24.30;;
11514;SDS011;5814;41.936;25.556;2024-03-07T07:22:41;29.03;;;26.17;;
11514;SDS011;5814;41.936;25.556;2024-03-07T07:25:07;29.10;;;26.10;;
11514;SDS011;5814;41.936;25.556;2024-03-07T07:27:45;28.93;;;25.97;;
11514;SDS011;5814;41.936;25.556;2024-03-07T07:30:14;29.03;;;26.23;;
11514;SDS011;5814;41.936;25.556;2024-03-07T07:32:41;27.87;;;25.00;;
11514;SDS011;5814;41.936;25.556;2024-03-07T07:35:08;31.50;;;28.03;;
11514;SDS011;5814;41.936;25.556;2024-03-07T07:37:58;33.90;;;30.07;;
11514;SDS011;5814;41.936;25.556;2024-03-07T07:40:23;32.60;;;29.00;;
11514;SDS011;5814;41.936;25.556;2024-03-07T07:42:52;33.33;;;28.13;;
11514;SDS011;5814;41.936;25.556;2024-03-07T07:45:18;38.83;;;30.90;;
11514;SDS011;5814;41.936;25.556;2024-03-07T07:47:45;37.07;;;33.43;;
11514;SDS011;5814;41.936;25.556;2024-03-07T07:50:14;36.33;;;32.73;;
11514;SDS011;5814;41.936;25.556;2024-03-07T07:52:44;35.37;;;31.67;;
11514;SDS011;5814;41.936;25.556;2024-03-07T07:55:11;36.50;;;31.43;;
11514;SDS011;5814;41.936;25.556;2024-03-07T07:57:49;37.80;;;34.17;;
11514;SDS011;5814;41.936;25.556;2024-03-07T08:00:19;36.60;;;32.73;;
11514;SDS011;5814;41.936;25.556;2024-03-07T08:05:17;42.83;;;35.60;;
11514;SDS011;5814;41.936;25.556;2024-03-07T08:07:44;32.27;;;29.13;;
11514;SDS011;5814;41.936;25.556;2024-03-07T08:10:11;36.57;;;32.90;;
11514;SDS011;5814;41.936;25.556;2024-03-07T08:12:36;37.97;;;34.23;;
11514;SDS011;5814;41.936;25.556;2024-03-07T08:15:03;36.87;;;33.13;;
11514;SDS011;5814;41.936;25.556;2024-03-07T08:17:30;36.70;;;32.97;;
11514;SDS011;5814;41.936;25.556;2024-03-07T08:19:56;36.17;;;32.57;;
11514;SDS011;5814;41.936;25.556;2024-03-07T08:22:22;39.03;;;35.03;;
11514;SDS011;5814;41.936;25.556;2024-03-07T08:24:47;39.37;;;35.27;;
11514;SDS011;5814;41.936;25.556;2024-03-07T08:27:13;37.30;;;33.30;;
11514;SDS011;5814;41.936;25.556;2024-03-07T08:29:38;36.80;;;33.20;;
11514;SDS011;5814;41.936;25.556;2024-03-07T08:32:04;34.50;;;31.10;;
11514;SDS011;5814;41.936;25.556;2024-03-07T08:34:30;36.33;;;32.40;;
11514;SDS011;5814;41.936;25.556;2024-03-07T08:36:56;34.57;;;30.77;;
11514;SDS011;5814;41.936;25.556;2024-03-07T08:39:21;35.90;;;32.23;;
11514;SDS011;5814;41.936;25.556;2024-03-07T08:41:47;54.57;;;45.07;;
11514;SDS011;5814;41.936;25.556;2024-03-07T08:44:13;37.50;;;33.97;;
11514;SDS011;5814;41.936;25.556;2024-03-07T08:46:38;38.90;;;34.83;;
11514;SDS011;5814;41.936;25.556;2024-03-07T08:49:04;37.97;;;33.90;;
11514;SDS011;5814;41.936;25.556;2024-03-07T08:51:30;37.43;;;33.57;;
11514;SDS011;5814;41.936;25.556;2024-03-07T08:53:56;37.50;;;33.97;;
11514;SDS011;5814;41.936;25.556;2024-03-07T08:56:21;38.97;;;35.27;;
11514;SDS011;5814;41.936;25.556;2024-03-07T08:58:47;39.23;;;35.37;;
11514;SDS011;5814;41.936;25.556;2024-03-07T09:01:13;41.50;;;37.43;;
11514;SDS011;5814;41.936;25.556;2024-03-07T09:03:38;43.33;;;38.93;;
11514;SDS011;5814;41.936;25.556;2024-03-07T09:06:04;41.83;;;36.60;;
11514;SDS011;5814;41.936;25.556;2024-03-07T09:08:30;38.13;;;34.03;;
11514;SDS011;5814;41.936;25.556;2024-03-07T09:10:56;43.43;;;38.80;;
11514;SDS011;5814;41.936;25.556;2024-03-07T09:13:23;41.57;;;36.80;;
11514;SDS011;5814;41.936;25.556;2024-03-07T09:15:48;40.73;;;36.63;;
11514;SDS011;5814;41.936;25.556;2024-03-07T09:18:14;42.57;;;38.23;;
11514;SDS011;5814;41.936;25.556;2024-03-07T09:20:39;40.90;;;36.77;;
11514;SDS011;5814;41.936;25.556;2024-03-07T09:23:06;44.70;;;40.30;;
11514;SDS011;5814;41.936;25.556;2024-03-07T09:25:32;43.10;;;38.83;;
11514;SDS011;5814;41.936;25.556;2024-03-07T09:27:58;41.57;;;37.47;;
11514;SDS011;5814;41.936;25.556;2024-03-07T09:30:25;58.93;;;52.57;;
11514;SDS011;5814;41.936;25.556;2024-03-07T09:32:56;49.90;;;44.97;;
11514;SDS011;5814;41.936;25.556;2024-03-07T09:35:21;47.63;;;42.47;;
11514;SDS011;5814;41.936;25.556;2024-03-07T09:37:47;41.13;;;36.93;;
11514;SDS011;5814;41.936;25.556;2024-03-07T09:40:13;38.70;;;34.93;;
11514;SDS011;5814;41.936;25.556;2024-03-07T09:42:46;39.30;;;35.43;;
11514;SDS011;5814;41.936;25.556;2024-03-07T09:45:18;38.93;;;35.20;;
11514;SDS011;5814;41.936;25.556;2024-03-07T09:47:45;37.97;;;34.30;;
11514;SDS011;5814;41.936;25.556;2024-03-07T09:50:18;40.57;;;36.20;;
11514;SDS011;5814;41.936;25.556;2024-03-07T09:52:48;40.00;;;35.77;;
11514;SDS011;5814;41.936;25.556;2024-03-07T09:55:15;39.73;;;34.17;;
11514;SDS011;5814;41.936;25.556;2024-03-07T09:57:48;37.77;;;33.70;;
11514;SDS011;5814;41.936;25.556;2024-03-07T10:00:16;37.47;;;33.67;;
11514;SDS011;5814;41.936;25.556;2024-03-07T10:03:07;39.03;;;35.30;;
11514;SDS011;5814;41.936;25.556;2024-03-07T10:05:34;39.63;;;35.77;;
11514;SDS011;5814;41.936;25.556;2024-03-07T10:08:00;40.17;;;36.27;;
11514;SDS011;5814;41.936;25.556;2024-03-07T10:10:28;40.40;;;36.17;;
11514;SDS011;5814;41.936;25.556;2024-03-07T10:12:55;39.17;;;35.57;;
11514;SDS011;5814;41.936;25.556;2024-03-07T10:15:30;39.17;;;35.37;;
11514;SDS011;5814;41.936;25.556;2024-03-07T10:17:56;38.50;;;34.97;;
11514;SDS011;5814;41.936;25.556;2024-03-07T10:20:21;38.87;;;35.07;;
11514;SDS011;5814;41.936;25.556;2024-03-07T10:22:47;35.73;;;32.43;;
11514;SDS011;5814;41.936;25.556;2024-03-07T10:25:17;35.07;;;31.87;;
11514;SDS011;5814;41.936;25.556;2024-03-07T10:27:43;37.20;;;33.60;;
11514;SDS011;5814;41.936;25.556;2024-03-07T10:30:13;36.33;;;32.53;;
11514;SDS011;5814;41.936;25.556;2024-03-07T10:32:45;35.97;;;32.37;;
11514;SDS011;5814;41.936;25.556;2024-03-07T10:35:11;37.57;;;33.90;;
11514;SDS011;5814;41.936;25.556;2024-03-07T10:37:39;37.07;;;33.47;;
11514;SDS011;5814;41.936;25.556;2024-03-07T10:40:05;34.73;;;31.40;;
11514;SDS011;5814;41.936;25.556;2024-03-07T10:42:42;38.70;;;34.63;;
11514;SDS011;5814;41.936;25.556;2024-03-07T10:45:11;36.07;;;32.70;;
11514;SDS011;5814;41.936;25.556;2024-03-07T10:47:41;36.00;;;32.70;;
11514;SDS011;5814;41.936;25.556;2024-03-07T10:50:21;38.43;;;34.87;;
11514;SDS011;5814;41.936;25.556;2024-03-07T10:53:15;38.57;;;34.93;;
11514;SDS011;5814;41.936;25.556;2024-03-07T11:01:32;42.67;;;38.50;;
11514;SDS011;5814;41.936;25.556;2024-03-07T11:04:00;36.00;;;32.73;;
11514;SDS011;5814;41.936;25.556;2024-03-07T11:06:29;34.53;;;31.23;;
11514;SDS011;5814;41.936;25.556;2024-03-07T11:08:56;34.70;;;31.40;;
11514;SDS011;5814;41.936;25.556;2024-03-07T11:11:22;33.30;;;30.30;;
11514;SDS011;5814;41.936;25.556;2024-03-07T11:13:49;34.17;;;30.97;;
11514;SDS011;5814;41.936;25.556;2024-03-07T11:16:18;37.97;;;34.20;;
11514;SDS011;5814;41.936;25.556;2024-03-07T11:21:53;37.23;;;33.50;;
11514;SDS011;5814;41.936;25.556;2024-03-07T11:24:23;38.23;;;34.40;;
11514;SDS011;5814;41.936;25.556;2024-03-07T11:26:51;40.40;;;36.57;;
11514;SDS011;5814;41.936;25.556;2024-03-07T11:32:02;36.97;;;33.47;;
11514;SDS011;5814;41.936;25.556;2024-03-07T11:34:31;36.30;;;32.93;;
11514;SDS011;5814;41.936;25.556;2024-03-07T11:36:56;36.27;;;32.87;;
11514;SDS011;5814;41.936;25.556;2024-03-07T11:39:38;40.80;;;37.10;;
11514;SDS011;5814;41.936;25.556;2024-03-07T11:44:50;38.53;;;34.67;;
11514;SDS011;5814;41.936;25.556;2024-03-07T11:47:17;39.60;;;35.57;;
11514;SDS011;5814;41.936;25.556;2024-03-07T11:49:43;43.93;;;39.60;;
11514;SDS011;5814;41.936;25.556;2024-03-07T11:52:13;42.50;;;38.50;;
11514;SDS011;5814;41.936;25.556;2024-03-07T11:54:41;44.13;;;39.77;;
11514;SDS011;5814;41.936;25.556;2024-03-07T11:57:17;44.77;;;40.13;;
11514;SDS011;5814;41.936;25.556;2024-03-07T11:59:51;42.70;;;38.43;;
11514;SDS011;5814;41.936;25.556;2024-03-07T12:02:18;42.33;;;38.17;;
11514;SDS011;5814;41.936;25.556;2024-03-07T12:04:47;46.17;;;41.27;;
11514;SDS011;5814;41.936;25.556;2024-03-07T12:07:16;41.50;;;37.50;;
11514;SDS011;5814;41.936;25.556;2024-03-07T12:09:47;41.30;;;37.40;;
11514;SDS011;5814;41.936;25.556;2024-03-07T12:12:19;43.00;;;38.93;;
11514;SDS011;5814;41.936;25.556;2024-03-07T12:14:53;40.40;;;36.40;;
11514;SDS011;5814;41.936;25.556;2024-03-07T12:17:19;42.37;;;38.13;;
11514;SDS011;5814;41.936;25.556;2024-03-07T12:19:46;42.07;;;37.80;;
11514;SDS011;5814;41.936;25.556;2024-03-07T12:22:12;44.80;;;40.27;;
11514;SDS011;5814;41.936;25.556;2024-03-07T12:24:41;34.47;;;31.23;;
11514;SDS011;5814;41.936;25.556;2024-03-07T12:27:15;39.90;;;35.97;;
11514;SDS011;5814;41.936;25.556;2024-03-07T12:29:41;36.43;;;33.23;;
11514;SDS011;5814;41.936;25.556;2024-03-07T12:32:08;31.13;;;28.53;;
11514;SDS011;5814;41.936;25.556;2024-03-07T12:34:39;29.43;;;27.13;;
11514;SDS011;5814;41.936;25.556;2024-03-07T12:37:10;29.60;;;27.13;;
11514;SDS011;5814;41.936;25.556;2024-03-07T12:39:36;28.47;;;25.97;;
11514;SDS011;5814;41.936;25.556;2024-03-07T12:42:11;28.80;;;26.27;;
11514;SDS011;5814;41.936;25.556;2024-03-07T12:44:42;30.37;;;27.73;;
11514;SDS011;5814;41.936;25.556;2024-03-07T12:47:11;29.40;;;26.93;;
11514;SDS011;5814;41.936;25.556;2024-03-07T12:49:43;24.33;;;22.57;;
11514;SDS011;5814;41.936;25.556;2024-03-07T12:52:09;27.53;;;25.23;;
11514;SDS011;5814;41.936;25.556;2024-03-07T12:54:37;28.63;;;26.23;;
11514;SDS011;5814;41.936;25.556;2024-03-07T12:57:06;26.80;;;24.70;;
11514;SDS011;5814;41.936;25.556;2024-03-07T12:59:34;29.23;;;26.83;;
11514;SDS011;5814;41.936;25.556;2024-03-07T13:02:02;27.40;;;25.20;;
11514;SDS011;5814;41.936;25.556;2024-03-07T13:04:28;28.73;;;26.37;;
11514;SDS011;5814;41.936;25.556;2024-03-07T13:06:55;30.77;;;28.10;;
11514;SDS011;5814;41.936;25.556;2024-03-07T13:09:25;30.70;;;28.23;;
11514;SDS011;5814;41.936;25.556;2024-03-07T13:11:56;29.33;;;26.77;;
11514;SDS011;5814;41.936;25.556;2024-03-07T13:14:26;29.80;;;27.23;;
11514;SDS011;5814;41.936;25.556;2024-03-07T13:17:01;29.50;;;27.10;;
11514;SDS011;5814;41.936;25.556;2024-03-07T13:19:27;37.90;;;34.50;;
11514;SDS011;5814;41.936;25.556;2024-03-07T13:21:54;42.93;;;38.23;;
11514;SDS011;5814;41.936;25.556;2024-03-07T13:24:20;48.73;;;40.40;;
11514;SDS011;5814;41.936;25.556;2024-03-07T13:26:47;35.97;;;32.57;;
11514;SDS011;5814;41.936;25.556;2024-03-07T13:29:16;41.70;;;37.90;;
11514;SDS011;5814;41.936;25.556;2024-03-07T13:31:42;37.30;;;34.07;;
11514;SDS011;5814;41.936;25.556;2024-03-07T13:34:09;28.30;;;25.90;;
11514;SDS011;5814;41.936;25.556;2024-03-07T13:36:41;28.37;;;26.00;;
11514;SDS011;5814;41.936;25.556;2024-03-07T13:39:08;28.07;;;25.77;;
11514;SDS011;5814;41.936;25.556;2024-03-07T13:41:37;27.13;;;24.93;;
11514;SDS011;5814;41.936;25.556;2024-03-07T13:44:03;28.43;;;26.03;;
11514;SDS011;5814;41.936;25.556;2024-03-07T13:46:32;31.10;;;28.27;;
11514;SDS011;5814;41.936;25.556;2024-03-07T13:49:01;28.40;;;26.13;;
11514;SDS011;5814;41.936;25.556;2024-03-07T13:51:38;31.47;;;28.57;;
11514;SDS011;5814;41.936;25.556;2024-03-07T13:54:15;24.03;;;22.23;;
11514;SDS011;5814;41.936;25.556;2024-03-07T14:00:05;22.60;;;21.00;;
11514;SDS011;5814;41.936;25.556;2024-03-07T14:02:51;21.97;;;20.27;;
11514;SDS011;5814;41.936;25.556;2024-03-07T14:08:15;20.90;;;19.40;;
11514;SDS011;5814;41.936;25.556;2024-03-07T14:16:40;21.70;;;20.10;;
11514;SDS011;5814;41.936;25.556;2024-03-07T14:27:58;20.97;;;19.50;;
11514;SDS011;5814;41.936;25.556;2024-03-07T14:33:18;21.13;;;19.43;;
11514;SDS011;5814;41.936;25.556;2024-03-07T14:36:05;19.63;;;18.40;;
11514;SDS011;5814;41.936;25.556;2024-03-07T14:41:15;18.67;;;17.53;;
11514;SDS011;5814;41.936;25.556;2024-03-07T14:43:43;20.00;;;18.60;;
11514;SDS011;5814;41.936;25.556;2024-03-07T14:46:10;17.87;;;16.77;;
11514;SDS011;5814;41.936;25.556;2024-03-07T14:48:37;19.23;;;17.93;;
11514;SDS011;5814;41.936;25.556;2024-03-07T14:51:04;17.33;;;16.27;;
11514;SDS011;5814;41.936;25.556;2024-03-07T14:53:33;17.60;;;16.40;;
11514;SDS011;5814;41.936;25.556;2024-03-07T14:55:58;18.57;;;17.43;;
11514;SDS011;5814;41.936;25.556;2024-03-07T14:58:24;19.67;;;18.37;;
11514;SDS011;5814;41.936;25.556;2024-03-07T15:00:50;20.37;;;19.07;;
11514;SDS011;5814;41.936;25.556;2024-03-07T15:03:18;18.80;;;17.53;;
11514;SDS011;5814;41.936;25.556;2024-03-07T15:05:44;16.13;;;15.07;;
11514;SDS011;5814;41.936;25.556;2024-03-07T15:08:10;14.90;;;14.00;;